Alexandria, OH

11:19 PM EDT on April 01, 2015 (GMT -0400)
Port Columbus International | | Change Station
CLOSE
Current Station
Airport
Location: Columbus,
Elevation: 814 ft
Nearby Weather Stations

Elev 814 ft 39.99 °N, 82.88 °W | Updated 28 minutes ago

Clear
Clear
52 °F
Feels Like 52 °F
N
6
Wind Variable Wind from ESE

Today
High -- | Low -- °F
--% Chance of Precip.
Yesterday
High -- | Low -- °F
Precip. -- in
7:14 AM 7:54 PM
Waxing Gibbous, 95% visible
Pressure 30.09 in
Visibility 10.0 miles
Clouds Few 25000 ft
Dew Point 31 °F
Humidity 45%
Rainfall 0.00 in
Snow Depth Not available.
UV 0 out of 12
Pollen 9.80 out of 12
Air Quality Not available.
Flu Activity Not available.
METAR KCMH 020251Z 12005KT 10SM FEW250 11/M01 A3009 RMK AO2 SLP190 T01111006 58003

More Conditions Fewer Conditions

Pressure 30.09 in
Visibility 10.0 miles
Clouds Few 25000 ft
Dew Point 31 °F
Humidity 45%
Rainfall 0.00 in
Snow Depth Not available.
UV 0 out of 12
Pollen 9.80 out of 12
Air Quality Not available.
Flu Activity Not available.
METAR KCMH 020251Z 12005KT 10SM FEW250 11/M01 A3009 RMK AO2 SLP190 T01111006 58003

More Conditions Fewer Conditions

10-Day Weather Forecast

Almanac

Astronomy

Apr. 01, 2015 Rise Set
Actual Time
Civil Twilight
Nautical Twilight
Astronomical Twilight
Moon
Length of Visible Light
Length of Day
Tomorrow will be .
, % of the Moon is Illuminated

Today's Extremes

State Highs State Lows

Community

WunderPhotos

Upload Photos

1,810,179 photos uploaded!

WunderBlogs® & News

Nearby

Air Quality

  Air Quality AQ Index Pollutant
Not available.

Snow Depth

Station Depth Elevation

Earthquake Activity

City Distance Mag. Time & Date
Minimum magnitude displayed is 2.5.

Coastal Water Temperatures

Place Temperature

Stations

Nearby Weather Stations

Station Location Temp. Windchill Dew Point Humidity Wind Precip. Elev Updated Type